sensor_id;sensor_type;location;lat;lon;timestamp;temperature;humidity
17879;DHT22;9065;51.050;13.758;2023-04-01T00:01:46;12.10;99.90
17879;DHT22;9065;51.050;13.758;2023-04-01T00:04:13;12.20;99.90
17879;DHT22;9065;51.050;13.758;2023-04-01T00:06:41;12.20;99.90
17879;DHT22;9065;51.050;13.758;2023-04-01T00:09:07;12.20;99.90
17879;DHT22;9065;51.050;13.758;2023-04-01T00:11:35;12.20;99.90
17879;DHT22;9065;51.050;13.758;2023-04-01T00:14:02;12.10;99.90
17879;DHT22;9065;51.050;13.758;2023-04-01T00:16:29;12.10;99.90
17879;DHT22;9065;51.050;13.758;2023-04-01T00:18:56;12.10;99.90
17879;DHT22;9065;51.050;13.758;2023-04-01T00:21:23;12.10;99.90
17879;DHT22;9065;51.050;13.758;2023-04-01T00:23:50;12.10;99.90
17879;DHT22;9065;51.050;13.758;2023-04-01T00:26:17;12.10;99.90
17879;DHT22;9065;51.050;13.758;2023-04-01T00:28:49;12.10;99.90
17879;DHT22;9065;51.050;13.758;2023-04-01T00:31:16;12.00;99.90
17879;DHT22;9065;51.050;13.758;2023-04-01T00:33:43;12.10;99.90
17879;DHT22;9065;51.050;13.758;2023-04-01T00:36:11;12.00;99.90
17879;DHT22;9065;51.050;13.758;2023-04-01T00:38:38;12.00;99.90
17879;DHT22;9065;51.050;13.758;2023-04-01T00:41:06;12.00;99.90
17879;DHT22;9065;51.050;13.758;2023-04-01T00:43:33;12.00;99.90
17879;DHT22;9065;51.050;13.758;2023-04-01T00:46:02;12.00;99.90
17879;DHT22;9065;51.050;13.758;2023-04-01T00:48:31;12.00;99.90
17879;DHT22;9065;51.050;13.758;2023-04-01T00:51:02;12.00;99.90
17879;DHT22;9065;51.050;13.758;2023-04-01T00:53:32;12.00;99.90
17879;DHT22;9065;51.050;13.758;2023-04-01T00:56:03;12.00;99.90
17879;DHT22;9065;51.050;13.758;2023-04-01T00:58:35;12.00;99.90
17879;DHT22;9065;51.050;13.758;2023-04-01T01:01:05;11.90;99.90
17879;DHT22;9065;51.050;13.758;2023-04-01T01:03:32;11.90;99.90
17879;DHT22;9065;51.050;13.758;2023-04-01T01:06:13;11.90;99.90
17879;DHT22;9065;51.050;13.758;2023-04-01T01:09:03;11.80;99.90
17879;DHT22;9065;51.050;13.758;2023-04-01T01:11:37;11.80;99.90
17879;DHT22;9065;51.050;13.758;2023-04-01T01:14:10;11.90;99.90
17879;DHT22;9065;51.050;13.758;2023-04-01T01:16:43;11.90;99.90
17879;DHT22;9065;51.050;13.758;2023-04-01T01:19:24;11.90;99.90
17879;DHT22;9065;51.050;13.758;2023-04-01T01:22:09;11.90;99.90
17879;DHT22;9065;51.050;13.758;2023-04-01T01:24:55;11.90;99.90
17879;DHT22;9065;51.050;13.758;2023-04-01T01:27:29;12.00;99.90
17879;DHT22;9065;51.050;13.758;2023-04-01T01:30:20;12.00;99.90
17879;DHT22;9065;51.050;13.758;2023-04-01T01:33:27;12.00;99.90
17879;DHT22;9065;51.050;13.758;2023-04-01T01:36:03;12.00;99.90
17879;DHT22;9065;51.050;13.758;2023-04-01T01:38:34;11.90;99.90
17879;DHT22;9065;51.050;13.758;2023-04-01T01:41:04;11.90;99.90
17879;DHT22;9065;51.050;13.758;2023-04-01T01:43:36;12.00;99.90
17879;DHT22;9065;51.050;13.758;2023-04-01T01:46:09;12.00;99.90
17879;DHT22;9065;51.050;13.758;2023-04-01T01:48:37;12.00;99.90
17879;DHT22;9065;51.050;13.758;2023-04-01T01:51:07;12.00;99.90
17879;DHT22;9065;51.050;13.758;2023-04-01T01:53:34;12.00;99.90
17879;DHT22;9065;51.050;13.758;2023-04-01T01:56:01;12.00;99.90
17879;DHT22;9065;51.050;13.758;2023-04-01T01:58:31;12.00;99.90
17879;DHT22;9065;51.050;13.758;2023-04-01T02:01:03;11.90;99.90
17879;DHT22;9065;51.050;13.758;2023-04-01T02:03:33;12.00;99.90
17879;DHT22;9065;51.050;13.758;2023-04-01T02:06:05;11.90;99.90
17879;DHT22;9065;51.050;13.758;2023-04-01T02:08:37;11.90;99.90
17879;DHT22;9065;51.050;13.758;2023-04-01T02:11:11;11.90;99.90
17879;DHT22;9065;51.050;13.758;2023-04-01T02:13:40;11.90;99.90
17879;DHT22;9065;51.050;13.758;2023-04-01T02:16:13;12.00;99.90
17879;DHT22;9065;51.050;13.758;2023-04-01T02:18:43;11.90;99.90
17879;DHT22;9065;51.050;13.758;2023-04-01T02:21:11;11.90;99.90
17879;DHT22;9065;51.050;13.758;2023-04-01T02:23:40;11.80;99.90
17879;DHT22;9065;51.050;13.758;2023-04-01T02:26:08;11.90;99.90
17879;DHT22;9065;51.050;13.758;2023-04-01T02:28:38;11.90;99.90
17879;DHT22;9065;51.050;13.758;2023-04-01T02:31:07;11.90;99.90
17879;DHT22;9065;51.050;13.758;2023-04-01T02:33:35;11.90;99.90
17879;DHT22;9065;51.050;13.758;2023-04-01T02:36:04;11.90;99.90
17879;DHT22;9065;51.050;13.758;2023-04-01T02:38:30;11.90;99.90
17879;DHT22;9065;51.050;13.758;2023-04-01T02:41:00;11.90;99.90
17879;DHT22;9065;51.050;13.758;2023-04-01T02:43:27;11.90;99.90
17879;DHT22;9065;51.050;13.758;2023-04-01T02:45:55;11.90;99.90
17879;DHT22;9065;51.050;13.758;2023-04-01T02:48:22;11.90;99.90
17879;DHT22;9065;51.050;13.758;2023-04-01T02:50:49;11.90;99.90
17879;DHT22;9065;51.050;13.758;2023-04-01T02:53:16;11.90;99.90
17879;DHT22;9065;51.050;13.758;2023-04-01T02:55:44;11.90;99.90
17879;DHT22;9065;51.050;13.758;2023-04-01T02:58:12;11.90;99.90
17879;DHT22;9065;51.050;13.758;2023-04-01T03:00:40;11.90;99.90
17879;DHT22;9065;51.050;13.758;2023-04-01T03:03:07;11.90;99.90
17879;DHT22;9065;51.050;13.758;2023-04-01T03:05:34;11.90;99.90
17879;DHT22;9065;51.050;13.758;2023-04-01T03:08:02;11.90;99.90
17879;DHT22;9065;51.050;13.758;2023-04-01T03:10:31;11.90;99.90
17879;DHT22;9065;51.050;13.758;2023-04-01T03:12:58;11.90;99.90
17879;DHT22;9065;51.050;13.758;2023-04-01T03:15:26;12.00;99.90
17879;DHT22;9065;51.050;13.758;2023-04-01T03:17:55;12.00;99.90
17879;DHT22;9065;51.050;13.758;2023-04-01T03:20:22;12.00;99.90
17879;DHT22;9065;51.050;13.758;2023-04-01T03:22:49;12.00;99.90
17879;DHT22;9065;51.050;13.758;2023-04-01T03:25:16;12.00;99.90
17879;DHT22;9065;51.050;13.758;2023-04-01T03:27:42;12.00;99.90
17879;DHT22;9065;51.050;13.758;2023-04-01T03:30:10;11.90;99.90
17879;DHT22;9065;51.050;13.758;2023-04-01T03:32:39;11.90;99.90
17879;DHT22;9065;51.050;13.758;2023-04-01T03:35:07;11.90;99.90
17879;DHT22;9065;51.050;13.758;2023-04-01T03:37:35;11.90;99.90
17879;DHT22;9065;51.050;13.758;2023-04-01T03:40:02;11.90;99.90
17879;DHT22;9065;51.050;13.758;2023-04-01T03:42:30;11.90;99.90
17879;DHT22;9065;51.050;13.758;2023-04-01T03:44:58;11.90;99.90
17879;DHT22;9065;51.050;13.758;2023-04-01T03:47:25;11.90;99.90
17879;DHT22;9065;51.050;13.758;2023-04-01T03:49:57;11.90;99.90
17879;DHT22;9065;51.050;13.758;2023-04-01T03:52:23;11.90;99.90
17879;DHT22;9065;51.050;13.758;2023-04-01T03:54:50;11.90;99.90
17879;DHT22;9065;51.050;13.758;2023-04-01T03:57:17;11.90;99.90
17879;DHT22;9065;51.050;13.758;2023-04-01T03:59:44;11.90;99.90
17879;DHT22;9065;51.050;13.758;2023-04-01T04:02:11;11.90;99.90
17879;DHT22;9065;51.050;13.758;2023-04-01T04:04:39;11.90;99.90
17879;DHT22;9065;51.050;13.758;2023-04-01T04:07:09;11.90;99.90
17879;DHT22;9065;51.050;13.758;2023-04-01T04:09:42;11.90;99.90
17879;DHT22;9065;51.050;13.758;2023-04-01T04:12:08;11.90;99.90
17879;DHT22;9065;51.050;13.758;2023-04-01T04:14:35;12.00;99.90
17879;DHT22;9065;51.050;13.758;2023-04-01T04:17:02;12.00;99.90
17879;DHT22;9065;51.050;13.758;2023-04-01T04:19:31;12.00;99.90
17879;DHT22;9065;51.050;13.758;2023-04-01T04:21:59;12.10;99.90
17879;DHT22;9065;51.050;13.758;2023-04-01T04:24:28;12.10;99.90
17879;DHT22;9065;51.050;13.758;2023-04-01T04:26:54;12.10;99.90
17879;DHT22;9065;51.050;13.758;2023-04-01T04:29:21;12.10;99.90
17879;DHT22;9065;51.050;13.758;2023-04-01T04:31:48;12.10;99.90
17879;DHT22;9065;51.050;13.758;2023-04-01T04:34:15;12.10;99.90
17879;DHT22;9065;51.050;13.758;2023-04-01T04:36:43;12.10;99.90
17879;DHT22;9065;51.050;13.758;2023-04-01T04:39:10;12.00;99.90
17879;DHT22;9065;51.050;13.758;2023-04-01T04:41:38;12.00;99.90
17879;DHT22;9065;51.050;13.758;2023-04-01T04:44:05;12.00;99.90
17879;DHT22;9065;51.050;13.758;2023-04-01T04:46:32;12.00;99.90
17879;DHT22;9065;51.050;13.758;2023-04-01T04:48:59;12.00;99.90
17879;DHT22;9065;51.050;13.758;2023-04-01T04:51:25;12.00;99.90
17879;DHT22;9065;51.050;13.758;2023-04-01T04:53:52;12.10;99.90
17879;DHT22;9065;51.050;13.758;2023-04-01T04:56:20;12.20;99.90
17879;DHT22;9065;51.050;13.758;2023-04-01T04:58:48;12.20;99.90
17879;DHT22;9065;51.050;13.758;2023-04-01T05:01:16;12.20;99.90
17879;DHT22;9065;51.050;13.758;2023-04-01T05:03:43;12.10;99.90
17879;DHT22;9065;51.050;13.758;2023-04-01T05:06:12;12.10;99.90
17879;DHT22;9065;51.050;13.758;2023-04-01T05:08:40;12.00;99.90
17879;DHT22;9065;51.050;13.758;2023-04-01T05:11:10;12.10;99.90
17879;DHT22;9065;51.050;13.758;2023-04-01T05:13:38;12.10;99.90
17879;DHT22;9065;51.050;13.758;2023-04-01T05:16:09;12.10;99.90
17879;DHT22;9065;51.050;13.758;2023-04-01T05:18:36;12.10;99.90
17879;DHT22;9065;51.050;13.758;2023-04-01T05:21:03;12.10;99.90
17879;DHT22;9065;51.050;13.758;2023-04-01T05:23:31;12.10;99.90
17879;DHT22;9065;51.050;13.758;2023-04-01T05:25:58;12.10;99.90
17879;DHT22;9065;51.050;13.758;2023-04-01T05:28:25;12.10;99.90
17879;DHT22;9065;51.050;13.758;2023-04-01T05:30:51;12.10;99.90
17879;DHT22;9065;51.050;13.758;2023-04-01T05:33:19;12.10;99.90
17879;DHT22;9065;51.050;13.758;2023-04-01T05:35:46;12.10;99.90
17879;DHT22;9065;51.050;13.758;2023-04-01T05:38:13;12.30;99.90
17879;DHT22;9065;51.050;13.758;2023-04-01T05:40:40;12.20;99.90
17879;DHT22;9065;51.050;13.758;2023-04-01T05:43:06;12.20;99.90
17879;DHT22;9065;51.050;13.758;2023-04-01T05:45:34;12.30;99.90
17879;DHT22;9065;51.050;13.758;2023-04-01T05:48:01;12.30;99.90
17879;DHT22;9065;51.050;13.758;2023-04-01T05:50:29;12.20;99.90
17879;DHT22;9065;51.050;13.758;2023-04-01T05:52:56;12.30;99.90
17879;DHT22;9065;51.050;13.758;2023-04-01T05:55:23;12.30;99.90
17879;DHT22;9065;51.050;13.758;2023-04-01T05:57:50;12.30;99.90
17879;DHT22;9065;51.050;13.758;2023-04-01T06:00:17;12.30;99.90
17879;DHT22;9065;51.050;13.758;2023-04-01T06:02:45;12.30;99.90
17879;DHT22;9065;51.050;13.758;2023-04-01T06:05:15;12.30;99.90
17879;DHT22;9065;51.050;13.758;2023-04-01T06:07:45;12.30;99.90
17879;DHT22;9065;51.050;13.758;2023-04-01T06:10:16;12.40;99.90
17879;DHT22;9065;51.050;13.758;2023-04-01T06:13:00;12.30;99.90
17879;DHT22;9065;51.050;13.758;2023-04-01T06:15:35;12.40;99.90
17879;DHT22;9065;51.050;13.758;2023-04-01T06:18:44;12.40;99.90
17879;DHT22;9065;51.050;13.758;2023-04-01T06:21:34;12.40;99.90
17879;DHT22;9065;51.050;13.758;2023-04-01T06:24:15;12.50;99.90
17879;DHT22;9065;51.050;13.758;2023-04-01T06:26:48;12.60;99.90
17879;DHT22;9065;51.050;13.758;2023-04-01T06:29:34;12.60;99.90
17879;DHT22;9065;51.050;13.758;2023-04-01T06:32:19;12.60;99.90
17879;DHT22;9065;51.050;13.758;2023-04-01T06:35:02;12.60;99.90
17879;DHT22;9065;51.050;13.758;2023-04-01T06:37:55;12.70;99.90
17879;DHT22;9065;51.050;13.758;2023-04-01T06:40:39;12.70;99.90
17879;DHT22;9065;51.050;13.758;2023-04-01T06:43:13;12.90;99.90
17879;DHT22;9065;51.050;13.758;2023-04-01T06:45:50;13.00;99.90
17879;DHT22;9065;51.050;13.758;2023-04-01T06:48:31;13.00;99.90
17879;DHT22;9065;51.050;13.758;2023-04-01T06:51:07;12.90;99.90
17879;DHT22;9065;51.050;13.758;2023-04-01T06:53:40;13.00;99.90
17879;DHT22;9065;51.050;13.758;2023-04-01T06:56:14;13.00;99.90
17879;DHT22;9065;51.050;13.758;2023-04-01T06:58:46;13.10;99.90
17879;DHT22;9065;51.050;13.758;2023-04-01T07:01:19;13.20;99.90
17879;DHT22;9065;51.050;13.758;2023-04-01T07:03:51;13.20;99.90
17879;DHT22;9065;51.050;13.758;2023-04-01T07:06:25;13.20;99.90
17879;DHT22;9065;51.050;13.758;2023-04-01T07:08:55;13.30;99.90
17879;DHT22;9065;51.050;13.758;2023-04-01T07:11:31;13.30;99.90
17879;DHT22;9065;51.050;13.758;2023-04-01T07:14:00;13.30;99.90
17879;DHT22;9065;51.050;13.758;2023-04-01T07:16:30;13.30;99.90
17879;DHT22;9065;51.050;13.758;2023-04-01T07:19:01;13.20;99.90
17879;DHT22;9065;51.050;13.758;2023-04-01T07:21:31;13.40;99.90
17879;DHT22;9065;51.050;13.758;2023-04-01T07:24:04;13.50;99.90
17879;DHT22;9065;51.050;13.758;2023-04-01T07:26:33;13.40;99.90
17879;DHT22;9065;51.050;13.758;2023-04-01T07:29:00;13.30;99.90
17879;DHT22;9065;51.050;13.758;2023-04-01T07:31:39;13.40;99.90
17879;DHT22;9065;51.050;13.758;2023-04-01T07:34:12;13.40;99.90
17879;DHT22;9065;51.050;13.758;2023-04-01T07:36:43;13.30;99.90
17879;DHT22;9065;51.050;13.758;2023-04-01T07:39:21;13.40;99.90
17879;DHT22;9065;51.050;13.758;2023-04-01T07:41:59;13.30;99.90
17879;DHT22;9065;51.050;13.758;2023-04-01T07:44:32;13.30;99.90
17879;DHT22;9065;51.050;13.758;2023-04-01T07:50:13;13.50;99.90
17879;DHT22;9065;51.050;13.758;2023-04-01T07:52:48;13.60;99.90
17879;DHT22;9065;51.050;13.758;2023-04-01T07:55:21;13.60;99.90
17879;DHT22;9065;51.050;13.758;2023-04-01T07:57:59;13.60;99.90
17879;DHT22;9065;51.050;13.758;2023-04-01T08:00:29;13.60;99.90
17879;DHT22;9065;51.050;13.758;2023-04-01T08:05:57;13.50;99.90
17879;DHT22;9065;51.050;13.758;2023-04-01T08:08:32;13.60;99.90
17879;DHT22;9065;51.050;13.758;2023-04-01T08:11:08;13.50;99.90
17879;DHT22;9065;51.050;13.758;2023-04-01T08:13:44;13.60;99.90
17879;DHT22;9065;51.050;13.758;2023-04-01T08:16:16;13.80;99.90
17879;DHT22;9065;51.050;13.758;2023-04-01T08:18:51;14.00;99.90
17879;DHT22;9065;51.050;13.758;2023-04-01T08:21:24;14.20;99.90
17879;DHT22;9065;51.050;13.758;2023-04-01T08:23:52;14.50;99.90
17879;DHT22;9065;51.050;13.758;2023-04-01T08:26:28;14.50;99.90
17879;DHT22;9065;51.050;13.758;2023-04-01T08:29:01;14.60;99.90
17879;DHT22;9065;51.050;13.758;2023-04-01T08:31:32;14.80;99.90
17879;DHT22;9065;51.050;13.758;2023-04-01T08:34:03;14.90;99.90
17879;DHT22;9065;51.050;13.758;2023-04-01T08:36:34;14.90;99.90
17879;DHT22;9065;51.050;13.758;2023-04-01T08:39:06;14.80;99.90
17879;DHT22;9065;51.050;13.758;2023-04-01T08:47:42;14.70;99.90
17879;DHT22;9065;51.050;13.758;2023-04-01T08:50:29;14.70;99.90
17879;DHT22;9065;51.050;13.758;2023-04-01T08:53:05;14.60;99.90
17879;DHT22;9065;51.050;13.758;2023-04-01T08:55:51;14.50;99.90
17879;DHT22;9065;51.050;13.758;2023-04-01T08:59:09;14.60;99.90
17879;DHT22;9065;51.050;13.758;2023-04-01T09:02:11;14.50;99.90
17879;DHT22;9065;51.050;13.758;2023-04-01T09:07:48;14.50;99.90
17879;DHT22;9065;51.050;13.758;2023-04-01T09:10:41;14.40;99.90
17879;DHT22;9065;51.050;13.758;2023-04-01T09:13:31;14.40;99.90
17879;DHT22;9065;51.050;13.758;2023-04-01T09:16:12;14.50;99.90
17879;DHT22;9065;51.050;13.758;2023-04-01T09:18:58;14.40;99.90
17879;DHT22;9065;51.050;13.758;2023-04-01T09:24:40;14.70;99.90
17879;DHT22;9065;51.050;13.758;2023-04-01T09:27:14;14.90;99.90
17879;DHT22;9065;51.050;13.758;2023-04-01T09:32:53;14.60;99.90
17879;DHT22;9065;51.050;13.758;2023-04-01T09:35:27;14.50;99.90
17879;DHT22;9065;51.050;13.758;2023-04-01T09:38:11;14.50;99.90
17879;DHT22;9065;51.050;13.758;2023-04-01T09:40:48;14.60;99.90
17879;DHT22;9065;51.050;13.758;2023-04-01T09:43:26;14.60;99.90
17879;DHT22;9065;51.050;13.758;2023-04-01T09:46:09;14.70;99.90
17879;DHT22;9065;51.050;13.758;2023-04-01T09:49:04;14.80;99.90
17879;DHT22;9065;51.050;13.758;2023-04-01T09:51:41;14.90;99.90
17879;DHT22;9065;51.050;13.758;2023-04-01T09:54:24;14.90;99.90
17879;DHT22;9065;51.050;13.758;2023-04-01T10:00:46;14.80;99.90
17879;DHT22;9065;51.050;13.758;2023-04-01T10:06:59;14.90;99.90
17879;DHT22;9065;51.050;13.758;2023-04-01T10:12:49;14.90;99.90
17879;DHT22;9065;51.050;13.758;2023-04-01T10:15:44;14.90;99.90
17879;DHT22;9065;51.050;13.758;2023-04-01T10:18:48;14.90;99.90
17879;DHT22;9065;51.050;13.758;2023-04-01T10:21:49;14.80;99.90
17879;DHT22;9065;51.050;13.758;2023-04-01T10:24:59;14.90;99.90
17879;DHT22;9065;51.050;13.758;2023-04-01T10:27:40;15.00;99.90
17879;DHT22;9065;51.050;13.758;2023-04-01T10:30:45;14.80;99.90
17879;DHT22;9065;51.050;13.758;2023-04-01T10:36:47;14.70;99.90
17879;DHT22;9065;51.050;13.758;2023-04-01T10:45:57;14.60;99.90
17879;DHT22;9065;51.050;13.758;2023-04-01T10:48:49;14.40;99.90
17879;DHT22;9065;51.050;13.758;2023-04-01T10:51:30;14.50;99.90
17879;DHT22;9065;51.050;13.758;2023-04-01T10:54:24;14.70;99.90
17879;DHT22;9065;51.050;13.758;2023-04-01T10:56:56;14.70;99.90
17879;DHT22;9065;51.050;13.758;2023-04-01T11:06:18;14.80;99.90
17879;DHT22;9065;51.050;13.758;2023-04-01T11:09:29;14.90;99.90
17879;DHT22;9065;51.050;13.758;2023-04-01T11:12:31;15.00;99.90
17879;DHT22;9065;51.050;13.758;2023-04-01T11:15:31;15.10;99.90
17879;DHT22;9065;51.050;13.758;2023-04-01T11:18:26;15.30;99.90
17879;DHT22;9065;51.050;13.758;2023-04-01T11:21:27;15.60;99.90
17879;DHT22;9065;51.050;13.758;2023-04-01T11:27:30;16.20;99.90
17879;DHT22;9065;51.050;13.758;2023-04-01T11:30:22;16.30;99.90
17879;DHT22;9065;51.050;13.758;2023-04-01T11:32:55;16.30;99.90
17879;DHT22;9065;51.050;13.758;2023-04-01T11:38:53;16.40;99.90
17879;DHT22;9065;51.050;13.758;2023-04-01T11:41:33;16.60;99.90
17879;DHT22;9065;51.050;13.758;2023-04-01T11:44:25;16.70;99.90
17879;DHT22;9065;51.050;13.758;2023-04-01T11:47:06;16.70;99.90
17879;DHT22;9065;51.050;13.758;2023-04-01T11:49:53;16.60;99.90
17879;DHT22;9065;51.050;13.758;2023-04-01T11:52:34;16.50;99.90
17879;DHT22;9065;51.050;13.758;2023-04-01T11:55:25;16.40;99.90
17879;DHT22;9065;51.050;13.758;2023-04-01T11:58:16;16.40;99.90
17879;DHT22;9065;51.050;13.758;2023-04-01T12:01:08;16.10;99.90
17879;DHT22;9065;51.050;13.758;2023-04-01T12:04:24;15.90;99.90
17879;DHT22;9065;51.050;13.758;2023-04-01T12:07:01;16.10;99.90
17879;DHT22;9065;51.050;13.758;2023-04-01T12:09:38;16.40;99.90
17879;DHT22;9065;51.050;13.758;2023-04-01T12:12:26;16.50;99.90
17879;DHT22;9065;51.050;13.758;2023-04-01T12:15:03;16.50;99.90
17879;DHT22;9065;51.050;13.758;2023-04-01T12:17:41;16.50;99.90
17879;DHT22;9065;51.050;13.758;2023-04-01T12:20:28;16.50;99.90
17879;DHT22;9065;51.050;13.758;2023-04-01T12:23:09;16.60;99.90
17879;DHT22;9065;51.050;13.758;2023-04-01T12:28:57;16.60;99.90
17879;DHT22;9065;51.050;13.758;2023-04-01T12:31:33;16.40;99.90
17879;DHT22;9065;51.050;13.758;2023-04-01T12:37:16;16.10;99.90
17879;DHT22;9065;51.050;13.758;2023-04-01T12:40:01;15.90;99.90
17879;DHT22;9065;51.050;13.758;2023-04-01T12:42:48;16.00;99.90
17879;DHT22;9065;51.050;13.758;2023-04-01T12:45:39;16.00;99.90
17879;DHT22;9065;51.050;13.758;2023-04-01T12:48:27;15.90;99.90
17879;DHT22;9065;51.050;13.758;2023-04-01T12:51:24;16.00;99.90
17879;DHT22;9065;51.050;13.758;2023-04-01T12:54:31;15.90;99.90
17879;DHT22;9065;51.050;13.758;2023-04-01T12:57:19;16.00;99.90
17879;DHT22;9065;51.050;13.758;2023-04-01T12:59:59;16.00;99.90
17879;DHT22;9065;51.050;13.758;2023-04-01T13:02:40;16.00;99.90
17879;DHT22;9065;51.050;13.758;2023-04-01T13:05:45;16.20;99.90
17879;DHT22;9065;51.050;13.758;2023-04-01T13:08:22;16.40;99.90
17879;DHT22;9065;51.050;13.758;2023-04-01T13:11:04;16.40;99.90
17879;DHT22;9065;51.050;13.758;2023-04-01T13:14:07;16.50;99.90
17879;DHT22;9065;51.050;13.758;2023-04-01T13:16:39;16.70;99.90
17879;DHT22;9065;51.050;13.758;2023-04-01T13:19:15;16.80;99.90
17879;DHT22;9065;51.050;13.758;2023-04-01T13:21:53;16.80;99.90
17879;DHT22;9065;51.050;13.758;2023-04-01T13:24:40;16.90;99.90
17879;DHT22;9065;51.050;13.758;2023-04-01T13:27:14;16.80;99.90
17879;DHT22;9065;51.050;13.758;2023-04-01T13:29:57;16.70;99.90
17879;DHT22;9065;51.050;13.758;2023-04-01T13:32:33;16.60;99.90
17879;DHT22;9065;51.050;13.758;2023-04-01T13:35:15;16.50;99.90
17879;DHT22;9065;51.050;13.758;2023-04-01T13:37:54;16.50;99.90
17879;DHT22;9065;51.050;13.758;2023-04-01T13:40:36;16.30;99.90
17879;DHT22;9065;51.050;13.758;2023-04-01T13:43:13;16.10;99.90
17879;DHT22;9065;51.050;13.758;2023-04-01T13:46:08;16.10;99.90
17879;DHT22;9065;51.050;13.758;2023-04-01T13:48:59;16.10;99.90
17879;DHT22;9065;51.050;13.758;2023-04-01T13:52:02;16.10;99.90
17879;DHT22;9065;51.050;13.758;2023-04-01T13:54:57;16.20;99.90
17879;DHT22;9065;51.050;13.758;2023-04-01T13:57:45;16.40;99.90
17879;DHT22;9065;51.050;13.758;2023-04-01T14:00:23;16.70;99.90
17879;DHT22;9065;51.050;13.758;2023-04-01T14:03:10;17.00;99.90
17879;DHT22;9065;51.050;13.758;2023-04-01T14:05:50;16.80;99.90
17879;DHT22;9065;51.050;13.758;2023-04-01T14:08:29;16.60;99.90
17879;DHT22;9065;51.050;13.758;2023-04-01T14:11:13;16.60;99.90
17879;DHT22;9065;51.050;13.758;2023-04-01T14:13:51;16.60;99.90
17879;DHT22;9065;51.050;13.758;2023-04-01T14:19:28;16.00;99.90
17879;DHT22;9065;51.050;13.758;2023-04-01T14:22:11;15.90;99.90
17879;DHT22;9065;51.050;13.758;2023-04-01T14:24:57;15.90;99.90
17879;DHT22;9065;51.050;13.758;2023-04-01T14:27:41;15.90;99.90
17879;DHT22;9065;51.050;13.758;2023-04-01T14:30:20;15.90;99.90
17879;DHT22;9065;51.050;13.758;2023-04-01T14:32:57;16.00;99.90
17879;DHT22;9065;51.050;13.758;2023-04-01T14:35:36;15.90;99.90
17879;DHT22;9065;51.050;13.758;2023-04-01T14:38:30;15.90;99.90
17879;DHT22;9065;51.050;13.758;2023-04-01T14:41:17;16.00;99.90
17879;DHT22;9065;51.050;13.758;2023-04-01T14:44:22;16.00;99.90
17879;DHT22;9065;51.050;13.758;2023-04-01T14:47:08;15.90;99.90
17879;DHT22;9065;51.050;13.758;2023-04-01T14:49:39;15.90;99.90
17879;DHT22;9065;51.050;13.758;2023-04-01T14:52:13;15.80;99.90
17879;DHT22;9065;51.050;13.758;2023-04-01T14:54:44;15.80;99.90
17879;DHT22;9065;51.050;13.758;2023-04-01T14:57:15;15.80;99.90
17879;DHT22;9065;51.050;13.758;2023-04-01T14:59:51;15.70;99.90
17879;DHT22;9065;51.050;13.758;2023-04-01T15:02:37;15.50;99.90
17879;DHT22;9065;51.050;13.758;2023-04-01T15:05:15;15.50;99.90
17879;DHT22;9065;51.050;13.758;2023-04-01T15:07:55;15.60;99.90
17879;DHT22;9065;51.050;13.758;2023-04-01T15:10:49;15.70;99.90
17879;DHT22;9065;51.050;13.758;2023-04-01T15:13:29;15.90;99.90
17879;DHT22;9065;51.050;13.758;2023-04-01T15:16:09;16.10;99.90
17879;DHT22;9065;51.050;13.758;2023-04-01T15:18:44;16.10;99.90
17879;DHT22;9065;51.050;13.758;2023-04-01T15:21:22;15.90;99.90
17879;DHT22;9065;51.050;13.758;2023-04-01T15:24:07;15.80;99.90
17879;DHT22;9065;51.050;13.758;2023-04-01T15:26:49;15.70;99.90
17879;DHT22;9065;51.050;13.758;2023-04-01T15:29:31;15.60;99.90
17879;DHT22;9065;51.050;13.758;2023-04-01T15:32:03;15.50;99.90
17879;DHT22;9065;51.050;13.758;2023-04-01T15:34:41;15.40;99.90
17879;DHT22;9065;51.050;13.758;2023-04-01T15:37:14;15.20;99.90
17879;DHT22;9065;51.050;13.758;2023-04-01T15:39:54;15.20;99.90
17879;DHT22;9065;51.050;13.758;2023-04-01T15:42:31;15.20;99.90
17879;DHT22;9065;51.050;13.758;2023-04-01T15:45:11;15.20;99.90
17879;DHT22;9065;51.050;13.758;2023-04-01T15:47:42;15.10;99.90
17879;DHT22;9065;51.050;13.758;2023-04-01T15:50:46;15.10;99.90
17879;DHT22;9065;51.050;13.758;2023-04-01T15:53:37;15.00;99.90
17879;DHT22;9065;51.050;13.758;2023-04-01T15:56:19;14.90;99.90
17879;DHT22;9065;51.050;13.758;2023-04-01T15:58:58;14.90;99.90
17879;DHT22;9065;51.050;13.758;2023-04-01T16:01:38;14.80;99.90
17879;DHT22;9065;51.050;13.758;2023-04-01T16:04:22;14.70;99.90
17879;DHT22;9065;51.050;13.758;2023-04-01T16:07:04;14.70;99.90
17879;DHT22;9065;51.050;13.758;2023-04-01T16:12:40;14.50;99.90
17879;DHT22;9065;51.050;13.758;2023-04-01T16:15:16;14.50;99.90
17879;DHT22;9065;51.050;13.758;2023-04-01T16:18:06;14.40;99.90
17879;DHT22;9065;51.050;13.758;2023-04-01T16:20:44;14.40;99.90
17879;DHT22;9065;51.050;13.758;2023-04-01T16:23:18;14.40;99.90
17879;DHT22;9065;51.050;13.758;2023-04-01T16:25:53;14.30;99.90
17879;DHT22;9065;51.050;13.758;2023-04-01T16:28:27;14.30;99.90
17879;DHT22;9065;51.050;13.758;2023-04-01T16:30:59;14.30;99.90
17879;DHT22;9065;51.050;13.758;2023-04-01T16:33:37;14.30;99.90
17879;DHT22;9065;51.050;13.758;2023-04-01T16:36:11;14.30;99.90
17879;DHT22;9065;51.050;13.758;2023-04-01T16:38:43;14.40;99.90
17879;DHT22;9065;51.050;13.758;2023-04-01T16:41:16;14.40;99.90
17879;DHT22;9065;51.050;13.758;2023-04-01T16:43:45;14.30;99.90
17879;DHT22;9065;51.050;13.758;2023-04-01T16:46:31;14.50;99.90
17879;DHT22;9065;51.050;13.758;2023-04-01T16:49:03;14.30;99.90
17879;DHT22;9065;51.050;13.758;2023-04-01T16:51:40;14.40;99.90
17879;DHT22;9065;51.050;13.758;2023-04-01T16:54:14;14.40;99.90
17879;DHT22;9065;51.050;13.758;2023-04-01T16:56:44;14.40;99.90
17879;DHT22;9065;51.050;13.758;2023-04-01T16:59:19;14.30;99.90
17879;DHT22;9065;51.050;13.758;2023-04-01T17:01:52;14.30;99.90
17879;DHT22;9065;51.050;13.758;2023-04-01T17:04:27;14.30;99.90
17879;DHT22;9065;51.050;13.758;2023-04-01T17:07:03;14.30;99.90
17879;DHT22;9065;51.050;13.758;2023-04-01T17:09:53;14.30;99.90
17879;DHT22;9065;51.050;13.758;2023-04-01T17:12:28;14.30;99.90
17879;DHT22;9065;51.050;13.758;2023-04-01T17:15:04;14.30;99.90
17879;DHT22;9065;51.050;13.758;2023-04-01T17:17:42;14.20;99.90
17879;DHT22;9065;51.050;13.758;2023-04-01T17:20:35;14.20;99.90
17879;DHT22;9065;51.050;13.758;2023-04-01T17:23:16;14.10;99.90
17879;DHT22;9065;51.050;13.758;2023-04-01T17:26:12;14.00;99.90
17879;DHT22;9065;51.050;13.758;2023-04-01T17:28:48;14.00;99.90
17879;DHT22;9065;51.050;13.758;2023-04-01T17:31:30;13.90;99.90
17879;DHT22;9065;51.050;13.758;2023-04-01T17:34:28;13.70;99.90
17879;DHT22;9065;51.050;13.758;2023-04-01T17:37:28;13.70;99.90